Weather at Kikai Airport

Public forecast

Using degrees Celsius for public forecast. Weather courtesy of forecast.io.

Closest aviation weather report (METAR) to Kikai Airport

Closest report is Amami Airport, 13.1 nm (24.3 km) WNW. Retrieved 2020/12/01 23:00 UTC (22 minutes ago):

RJKA 012300Z 04012KT 9999 FEW015 SCT030 BKN070 22/17 Q1020

Closest aviation forecast (TAF) to Kikai Airport

Forecast is more than 6 hours old.

Closest forecast is Kadena Air Base, 165.0 nm (305.6 km) SW. Retrieved 2020/12/01 16:06 UTC (7 hours ago):

TAF RODN 011600Z 0116/0222 03012G18KT 9999 BKN040 QNH3004INS BECMG 0122/0123 04012G20KT 9999 BKN020 QNH3002INS TEMPO 0200/0206 8000 -SHRA BKN015 BECMG 0219/0220 05012G18KT 9999 BKN030 QNH3002INS TX23/0203Z TN19/0120Z